Startpagina
METAR-TAF:

METAR-TAF

Vliegvelden :

Vliegbasis Bevekom

Bevekom, België

breedte: 50-45N, lengte: 004-46E, hoogte: 105 m

Actueel weer

Dit bericht is 22 minuten geleden gemaakt, om 23:25 UTC
Wind 1 kt uit variabele richting
Temperatuur 12°C
Vochtigheid 82%
Druk 1027 hPa
Zicht 10 km of meer

METAR: EBBE 122325Z AUTO VRB01KT 9999 NCD 12/09 Q1027 BLU

Tijdstip: 01:47 (23:47 UTC)

Verwachting

Dit bericht is 32 uur en het 6 minuten geleden gemaakt, om 15:41 UTC
Verwachting geldig van 11 om 19 UTC tot 12 om 07 UTC
Wind 7 kt uit het westen
Zicht 10 km of meer
Weinig wolken op 4500 ft
Verspreide wolken op 25000 ft
Wijzigt naar
van 11 om 22 UTC tot 11 om 24 UTC
Weinig wolken op 25000 ft

TAF: EBBE 111541Z 1119/1207 26007KT 9999 FEW045 SCT250 BECMG 1122/1124 FEW250

Waarnemingen en weersverwachtingen van meer dan 4000 vliegvelden (METAR en TAF).

De beschikbare stations zijn de gele en rode punten op de kaart.

Ga met uw muis naar het station om de naam te zien.

Klik dan om waarnemingen en weersverwachtingen te zien.

kaart wijzigen: klik op de groene knoppen met een zwart kruis om in te zoomen, op de groene knop met een streepje om uit te zoomen of op de groene pijlen voor aangrenzende kaarten.


METAR-TAF: